Time;durP1;ratioP1;P1;durP2;ratioP2;P2;SDS_P1;SDS_P2;PMS_P1;PMS_P2;Temp;Humidity;BMP_temperature;BMP_pressure;BME280_temperature;BME280_humidity;BME280_pressure;Samples;Min_cycle;Max_cycle;Signal;HPM_P1;HPM_P2
2023/07/05 00:01:53;;;;;;;3.73;2.00;;;16.80;99.90;;;;;;478075;249;28937;-79
2023/07/05 00:03:54;;;;;;;3.13;1.90;;;16.80;99.90;;;;;;478028;249;29387;-79
2023/07/05 00:05:56;;;;;;;2.63;1.93;;;16.80;99.90;;;;;;478041;249;30162;-79
2023/07/05 00:07:57;;;;;;;3.03;1.50;;;16.70;99.90;;;;;;478094;249;29212;-78
2023/07/05 00:09:58;;;;;;;4.27;1.87;;;16.70;99.90;;;;;;478074;249;28906;-79
2023/07/05 00:11:59;;;;;;;3.20;1.97;;;16.70;99.90;;;;;;478074;249;28918;-79
2023/07/05 00:14:01;;;;;;;3.20;1.90;;;16.70;99.90;;;;;;478061;249;28865;-79
2023/07/05 00:16:02;;;;;;;2.87;1.90;;;16.70;99.90;;;;;;478044;249;28920;-79
2023/07/05 00:18:03;;;;;;;2.00;1.90;;;16.70;99.90;;;;;;478109;249;28889;-79
2023/07/05 00:20:04;;;;;;;2.57;2.20;;;16.70;99.90;;;;;;478109;249;28928;-79
2023/07/05 00:22:06;;;;;;;2.40;2.03;;;16.70;99.90;;;;;;478061;249;28853;-79
2023/07/05 00:24:07;;;;;;;3.17;2.00;;;16.60;99.90;;;;;;478053;249;28892;-79
2023/07/05 00:26:08;;;;;;;2.53;2.23;;;16.60;99.90;;;;;;478052;249;28844;-80
2023/07/05 00:28:09;;;;;;;3.10;2.37;;;16.60;99.90;;;;;;478085;249;29328;-79
2023/07/05 00:30:11;;;;;;;5.33;2.30;;;16.60;99.90;;;;;;478117;249;29318;-79
2023/07/05 00:32:12;;;;;;;2.40;2.20;;;16.60;99.90;;;;;;478105;249;29313;-79
2023/07/05 00:34:13;;;;;;;2.10;1.77;;;16.50;99.90;;;;;;478098;249;29393;-79
2023/07/05 00:36:14;;;;;;;3.03;2.03;;;16.50;99.90;;;;;;478095;249;28925;-78
2023/07/05 00:38:16;;;;;;;4.23;2.53;;;16.50;99.90;;;;;;478085;249;28958;-78
2023/07/05 00:40:17;;;;;;;2.50;2.30;;;16.50;99.90;;;;;;478095;249;28978;-79
2023/07/05 00:42:18;;;;;;;1.93;1.80;;;16.50;99.90;;;;;;478096;249;28827;-79
2023/07/05 00:44:19;;;;;;;2.20;2.00;;;16.60;99.90;;;;;;478083;249;28989;-80
2023/07/05 00:46:21;;;;;;;4.13;2.23;;;16.50;99.90;;;;;;478072;249;28849;-79
2023/07/05 00:48:22;;;;;;;2.10;1.83;;;16.60;99.90;;;;;;478101;248;28886;-79
2023/07/05 00:50:23;;;;;;;2.27;2.07;;;16.60;99.90;;;;;;478110;249;28895;-78
2023/07/05 00:52:24;;;;;;;2.00;1.90;;;16.60;99.90;;;;;;478091;249;29277;-79
2023/07/05 00:54:26;;;;;;;2.33;2.13;;;16.60;99.90;;;;;;478084;249;29341;-79
2023/07/05 00:56:27;;;;;;;7.33;1.97;;;16.60;99.90;;;;;;478084;249;29255;-79
2023/07/05 00:58:28;;;;;;;2.90;1.93;;;16.50;99.90;;;;;;478133;249;29298;-79
2023/07/05 01:00:29;;;;;;;2.07;1.93;;;16.50;99.90;;;;;;478147;249;28878;-79
2023/07/05 01:02:31;;;;;;;2.20;2.00;;;16.50;99.90;;;;;;478102;249;28936;-79
2023/07/05 01:04:32;;;;;;;2.47;1.80;;;16.60;99.90;;;;;;478135;249;28952;-79
2023/07/05 01:06:33;;;;;;;2.40;2.20;;;16.60;99.90;;;;;;478119;249;28978;-79
2023/07/05 01:08:34;;;;;;;1.80;1.70;;;16.60;99.90;;;;;;478088;249;28865;-79
2023/07/05 01:10:36;;;;;;;2.27;1.97;;;16.60;99.90;;;;;;478113;249;28938;-78
2023/07/05 01:12:37;;;;;;;2.40;2.20;;;16.60;99.90;;;;;;478104;249;29020;-79
2023/07/05 01:14:38;;;;;;;1.90;1.73;;;16.70;99.90;;;;;;478080;249;28868;-79
2023/07/05 01:16:39;;;;;;;2.27;2.17;;;16.60;99.90;;;;;;478065;249;28898;-79
2023/07/05 01:18:41;;;;;;;2.10;1.90;;;16.60;99.90;;;;;;478101;249;29333;-79
2023/07/05 01:20:42;;;;;;;2.80;2.30;;;16.70;99.90;;;;;;478098;249;29444;-79
2023/07/05 01:22:43;;;;;;;3.33;2.47;;;16.70;99.90;;;;;;478037;249;29427;-79
2023/07/05 01:24:48;;;;;;;2.13;2.00;;;16.70;99.90;;;;;;478062;249;29361;-79
2023/07/05 01:26:46;;;;;;;2.00;1.80;;;16.70;99.90;;;;;;477728;249;28849;-79
2023/07/05 01:28:47;;;;;;;2.47;2.20;;;16.70;99.90;;;;;;478043;249;28881;-78
2023/07/05 01:30:48;;;;;;;2.87;1.90;;;16.60;99.90;;;;;;478096;249;28876;-79
2023/07/05 01:32:53;;;;;;;2.50;2.30;;;16.60;99.90;;;;;;478044;249;28830;-79
2023/07/05 01:34:51;;;;;;;2.30;2.10;;;16.60;99.90;;;;;;477807;249;28889;-79
2023/07/05 01:36:52;;;;;;;3.47;1.93;;;16.60;99.90;;;;;;478051;249;28833;-79
2023/07/05 01:38:53;;;;;;;1.83;1.73;;;16.60;99.90;;;;;;478076;249;28889;-78
2023/07/05 01:40:54;;;;;;;2.20;2.03;;;16.60;99.90;;;;;;478092;249;28889;-79
2023/07/05 01:42:56;;;;;;;2.60;2.03;;;16.70;99.90;;;;;;478115;249;29408;-79
2023/07/05 01:44:57;;;;;;;2.63;2.43;;;16.70;99.90;;;;;;478110;249;29471;-78
2023/07/05 01:46:58;;;;;;;5.20;2.40;;;16.80;99.90;;;;;;478053;249;29302;-79
2023/07/05 01:48:59;;;;;;;2.33;2.13;;;16.70;99.90;;;;;;478094;249;29416;-79
2023/07/05 01:51:01;;;;;;;2.23;2.07;;;16.70;99.90;;;;;;478126;249;28839;-79
2023/07/05 01:53:02;;;;;;;2.57;2.10;;;16.70;99.90;;;;;;478074;249;28814;-79
2023/07/05 01:55:03;;;;;;;3.93;2.10;;;16.70;99.90;;;;;;478094;249;28992;-79
2023/07/05 01:57:05;;;;;;;2.30;2.13;;;16.80;99.90;;;;;;478085;249;28979;-79
2023/07/05 01:59:06;;;;;;;3.23;2.07;;;16.70;99.90;;;;;;478076;249;28859;-79
2023/07/05 02:01:07;;;;;;;2.93;2.63;;;16.70;99.90;;;;;;478126;249;29331;-79
2023/07/05 02:03:08;;;;;;;2.00;1.90;;;16.70;99.90;;;;;;478114;249;28814;-79
2023/07/05 02:05:09;;;;;;;2.50;2.30;;;16.70;99.90;;;;;;478086;249;28963;-79
2023/07/05 02:07:11;;;;;;;2.27;2.17;;;16.70;99.90;;;;;;478065;249;28944;-79
2023/07/05 02:09:12;;;;;;;2.10;2.00;;;16.70;99.90;;;;;;478096;249;28881;-79
2023/07/05 02:11:13;;;;;;;4.13;2.30;;;16.70;99.90;;;;;;478133;249;28963;-79
2023/07/05 02:13:16;;;;;;;2.37;2.17;;;16.60;99.90;;;;;;478117;249;28927;-79
2023/07/05 02:15:16;;;;;;;1.97;1.80;;;16.70;99.90;;;;;;477984;249;28883;-79
2023/07/05 02:17:17;;;;;;;2.27;2.07;;;16.70;99.90;;;;;;478116;249;28830;-79
2023/07/05 02:19:18;;;;;;;2.30;2.10;;;16.70;99.90;;;;;;478123;249;29338;-79
2023/07/05 02:21:19;;;;;;;2.53;2.20;;;16.70;99.90;;;;;;478123;249;29291;-79
2023/07/05 02:23:22;;;;;;;2.40;2.20;;;16.70;99.90;;;;;;478095;249;29372;-79
2023/07/05 02:25:22;;;;;;;2.77;2.17;;;16.70;99.90;;;;;;478027;249;29024;-79
2023/07/05 02:27:23;;;;;;;4.30;2.40;;;16.70;99.90;;;;;;478050;249;28889;-79
2023/07/05 02:29:24;;;;;;;4.63;2.90;;;16.70;99.90;;;;;;478080;249;28977;-79
2023/07/05 02:31:26;;;;;;;2.93;2.63;;;16.70;99.90;;;;;;478103;249;28898;-79
2023/07/05 02:33:27;;;;;;;3.07;2.40;;;16.70;99.90;;;;;;478102;249;28814;-79
2023/07/05 02:35:28;;;;;;;2.40;2.17;;;16.70;99.90;;;;;;478096;249;28801;-79
2023/07/05 02:37:29;;;;;;;3.30;2.53;;;16.70;99.90;;;;;;478082;249;28856;-79
2023/07/05 02:39:31;;;;;;;3.47;2.40;;;16.60;99.90;;;;;;478078;249;28899;-79
2023/07/05 02:41:32;;;;;;;4.60;2.80;;;16.70;99.90;;;;;;478094;249;28977;-79
2023/07/05 02:43:33;;;;;;;2.30;2.10;;;16.70;99.90;;;;;;478095;249;29283;-79
2023/07/05 02:45:36;;;;;;;2.40;2.20;;;16.70;99.90;;;;;;478098;249;29384;-79
2023/07/05 02:47:36;;;;;;;4.60;2.17;;;16.70;99.90;;;;;;477998;249;29314;-79
2023/07/05 02:49:37;;;;;;;2.67;2.30;;;16.70;99.90;;;;;;478042;249;28858;-78
2023/07/05 02:51:38;;;;;;;6.30;2.57;;;16.70;99.90;;;;;;477900;249;28875;-79
2023/07/05 02:53:40;;;;;;;2.40;2.20;;;16.70;99.90;;;;;;477508;249;28877;-79
2023/07/05 02:55:41;;;;;;;2.80;2.00;;;16.80;99.90;;;;;;478036;249;28944;-79
2023/07/05 02:57:42;;;;;;;2.50;2.13;;;16.80;99.90;;;;;;478085;249;28958;-79
2023/07/05 02:59:43;;;;;;;5.60;2.00;;;16.80;99.90;;;;;;478082;249;28896;-79
2023/07/05 03:01:45;;;;;;;2.30;2.07;;;16.70;99.90;;;;;;478121;249;29423;-79
2023/07/05 03:03:46;;;;;;;2.47;2.27;;;16.70;99.90;;;;;;478111;249;28858;-79
2023/07/05 03:05:47;;;;;;;1.97;1.80;;;16.70;99.90;;;;;;481888;234;28777;-79
2023/07/05 03:07:48;;;;;;;2.90;2.60;;;16.70;99.90;;;;;;491420;242;29163;-79
2023/07/05 03:09:50;;;;;;;3.50;2.13;;;16.70;99.90;;;;;;491379;242;29187;-79
2023/07/05 03:11:51;;;;;;;3.60;2.40;;;16.70;99.90;;;;;;491415;242;29266;-79
2023/07/05 03:13:52;;;;;;;2.70;2.27;;;16.70;99.90;;;;;;491414;242;29212;-79
2023/07/05 03:15:53;;;;;;;3.77;2.30;;;16.70;99.90;;;;;;491410;242;28698;-79
2023/07/05 03:17:55;;;;;;;4.43;2.40;;;16.70;99.90;;;;;;491377;242;28655;-79
2023/07/05 03:19:57;;;;;;;3.10;2.10;;;16.70;99.90;;;;;;491397;242;28674;-79
2023/07/05 03:21:57;;;;;;;2.30;2.10;;;16.70;99.90;;;;;;491343;242;28694;-79
2023/07/05 03:23:58;;;;;;;2.60;1.77;;;16.70;99.90;;;;;;491430;242;28709;-79
2023/07/05 03:26:00;;;;;;;2.30;2.10;;;16.80;99.90;;;;;;491429;242;28721;-79
2023/07/05 03:28:02;;;;;;;2.40;2.20;;;16.70;99.90;;;;;;491408;241;28686;-79
2023/07/05 03:30:02;;;;;;;3.00;2.67;;;16.80;99.90;;;;;;491339;242;28693;-80
2023/07/05 03:32:03;;;;;;;4.63;2.23;;;16.70;99.90;;;;;;491387;242;28725;-79
2023/07/05 03:34:05;;;;;;;4.47;2.90;;;16.70;99.90;;;;;;491336;242;29160;-79
2023/07/05 03:36:06;;;;;;;2.60;2.20;;;16.70;99.90;;;;;;491415;242;29233;-78
2023/07/05 03:38:08;;;;;;;2.77;2.20;;;16.70;99.90;;;;;;491407;242;29168;-79
2023/07/05 03:40:08;;;;;;;11.20;2.50;;;16.60;99.90;;;;;;491422;242;28719;-79
2023/07/05 03:42:10;;;;;;;4.00;2.27;;;16.60;99.90;;;;;;491405;242;28746;-79
2023/07/05 03:44:11;;;;;;;2.50;2.30;;;16.50;99.90;;;;;;491408;242;28754;-79
2023/07/05 03:46:12;;;;;;;3.63;2.60;;;16.50;99.90;;;;;;491414;242;28705;-79
2023/07/05 03:48:13;;;;;;;3.60;2.53;;;16.50;99.90;;;;;;491390;242;28707;-79
2023/07/05 03:50:15;;;;;;;4.10;2.80;;;16.50;99.90;;;;;;491355;242;28818;-79
2023/07/05 03:52:16;;;;;;;2.43;2.23;;;16.60;99.90;;;;;;491390;242;28721;-79
2023/07/05 03:54:17;;;;;;;6.23;2.70;;;16.50;99.90;;;;;;491365;242;28710;-78
2023/07/05 03:56:18;;;;;;;2.40;2.03;;;16.50;99.90;;;;;;491423;242;28719;-79
2023/07/05 03:58:20;;;;;;;3.97;2.70;;;16.50;99.90;;;;;;491393;242;29310;-79
2023/07/05 04:00:21;;;;;;;2.10;2.00;;;16.50;99.90;;;;;;491395;242;29265;-79
2023/07/05 04:02:22;;;;;;;4.43;2.70;;;16.60;99.90;;;;;;491371;242;29125;-79
2023/07/05 04:04:23;;;;;;;3.70;2.37;;;16.40;99.90;;;;;;491381;242;28730;-79
2023/07/05 04:06:25;;;;;;;5.83;2.70;;;16.40;99.90;;;;;;493219;239;28813;-78
2023/07/05 04:08:26;;;;;;;3.10;2.50;;;16.40;99.90;;;;;;494576;240;28767;-79
2023/07/05 04:10:27;;;;;;;5.43;2.40;;;16.40;99.90;;;;;;494562;240;28699;-79
2023/07/05 04:12:28;;;;;;;6.17;2.30;;;16.30;99.90;;;;;;494546;240;28680;-79
2023/07/05 04:14:30;;;;;;;2.73;2.43;;;16.30;99.90;;;;;;494535;240;28696;-79
2023/07/05 04:16:31;;;;;;;5.20;2.70;;;16.40;99.90;;;;;;494539;240;28676;-79
2023/07/05 04:18:32;;;;;;;2.60;2.40;;;16.50;99.90;;;;;;494481;240;28732;-80
2023/07/05 04:20:33;;;;;;;3.90;2.20;;;16.60;99.90;;;;;;494537;240;28699;-79
2023/07/05 04:22:35;;;;;;;3.47;2.40;;;16.60;99.90;;;;;;494545;240;29126;-79
2023/07/05 04:24:36;;;;;;;3.27;2.53;;;16.50;99.90;;;;;;494527;240;29184;-79
2023/07/05 04:26:37;;;;;;;2.90;2.60;;;16.50;99.90;;;;;;494521;240;29890;-79
2023/07/05 04:28:38;;;;;;;4.90;2.90;;;16.50;99.90;;;;;;494540;240;28704;-80
2023/07/05 04:30:40;;;;;;;3.10;2.27;;;16.50;99.90;;;;;;494536;240;28716;-78
2023/07/05 04:32:41;;;;;;;5.90;2.93;;;16.40;99.90;;;;;;494524;240;28662;-79
2023/07/05 04:34:42;;;;;;;4.60;3.27;;;16.30;99.90;;;;;;494523;240;28720;-79
2023/07/05 04:36:43;;;;;;;5.27;3.30;;;16.00;99.90;;;;;;494510;240;28652;-79
2023/07/05 04:38:45;;;;;;;7.00;3.90;;;15.80;99.90;;;;;;494516;240;28749;-79
2023/07/05 04:40:46;;;;;;;4.83;3.87;;;15.60;99.90;;;;;;494557;240;28709;-78
2023/07/05 04:42:47;;;;;;;5.63;3.97;;;15.30;99.90;;;;;;494531;239;28666;-78
2023/07/05 04:44:48;;;;;;;5.70;3.83;;;15.10;99.90;;;;;;494545;240;28803;-79
2023/07/05 04:46:50;;;;;;;4.83;3.93;;;14.90;99.90;;;;;;494535;238;29109;-80
2023/07/05 04:48:51;;;;;;;6.77;4.20;;;14.70;99.90;;;;;;494509;240;29241;-80
2023/07/05 04:50:54;;;;;;;6.43;4.00;;;14.50;99.90;;;;;;494559;240;29173;-79
2023/07/05 04:52:53;;;;;;;6.27;4.40;;;14.50;99.90;;;;;;494419;240;29212;-79
2023/07/05 04:54:55;;;;;;;8.23;3.87;;;14.50;99.90;;;;;;494536;240;28740;-79
2023/07/05 04:56:56;;;;;;;5.77;4.63;;;14.50;99.90;;;;;;494522;240;28662;-79
2023/07/05 04:58:57;;;;;;;5.10;4.20;;;14.40;99.90;;;;;;494551;240;28707;-78
2023/07/05 05:00:58;;;;;;;5.07;3.87;;;14.40;99.90;;;;;;494583;240;28788;-78
2023/07/05 05:03:00;;;;;;;7.70;4.03;;;14.30;99.90;;;;;;494561;240;28665;-79
2023/07/05 05:05:01;;;;;;;7.20;4.70;;;14.30;99.90;;;;;;494571;240;28710;-79
2023/07/05 05:07:02;;;;;;;4.90;3.63;;;14.30;99.90;;;;;;494492;240;28725;-79
2023/07/05 05:09:03;;;;;;;5.13;4.10;;;14.40;99.90;;;;;;494527;240;28720;-79
2023/07/05 05:11:05;;;;;;;5.17;4.00;;;14.50;99.90;;;;;;494565;240;28797;-79
2023/07/05 05:13:07;;;;;;;4.77;4.27;;;14.50;99.90;;;;;;494553;240;28641;-79
2023/07/05 05:15:07;;;;;;;5.60;4.27;;;14.60;99.90;;;;;;494542;240;28705;-79
2023/07/05 05:17:08;;;;;;;5.13;3.70;;;14.70;99.90;;;;;;494517;240;28834;-79
2023/07/05 05:19:10;;;;;;;7.10;4.20;;;14.80;99.90;;;;;;494505;240;28727;-79
2023/07/05 05:21:11;;;;;;;5.07;4.20;;;14.90;99.90;;;;;;494514;240;28701;-79
2023/07/05 05:23:12;;;;;;;6.17;4.57;;;14.90;99.90;;;;;;494554;240;29126;-79
2023/07/05 05:25:13;;;;;;;5.80;4.33;;;14.70;99.90;;;;;;494497;240;29272;-79
2023/07/05 05:27:15;;;;;;;5.47;4.90;;;14.70;99.90;;;;;;494533;240;29207;-79
2023/07/05 05:29:16;;;;;;;4.67;4.10;;;14.60;99.90;;;;;;494530;240;28784;-79
2023/07/05 05:31:17;;;;;;;4.43;3.90;;;14.50;99.90;;;;;;494552;240;28685;-78
2023/07/05 05:33:18;;;;;;;7.63;4.43;;;14.50;99.90;;;;;;494533;240;28706;-79
2023/07/05 05:35:20;;;;;;;11.83;5.00;;;14.50;99.90;;;;;;494528;240;28785;-79
2023/07/05 05:37:21;;;;;;;5.13;4.20;;;14.60;99.90;;;;;;494525;240;28673;-79
2023/07/05 05:39:23;;;;;;;4.93;4.27;;;14.70;99.90;;;;;;494489;240;28762;-79
2023/07/05 05:41:23;;;;;;;5.90;3.90;;;14.80;99.90;;;;;;494549;240;29056;-79
2023/07/05 05:43:25;;;;;;;6.23;4.20;;;15.00;99.90;;;;;;494539;240;28662;-79
2023/07/05 05:45:26;;;;;;;6.97;4.30;;;15.10;99.90;;;;;;494554;240;28800;-79
2023/07/05 05:47:27;;;;;;;5.30;4.47;;;15.30;99.90;;;;;;494537;240;29110;-79
2023/07/05 05:49:28;;;;;;;5.30;4.30;;;15.20;99.90;;;;;;494543;240;29228;-79
2023/07/05 05:51:30;;;;;;;10.90;4.70;;;15.00;99.90;;;;;;494544;240;29346;-79
2023/07/05 05:53:31;;;;;;;5.13;4.23;;;14.90;99.90;;;;;;494564;240;28671;-79
2023/07/05 05:55:32;;;;;;;7.83;4.73;;;15.00;99.90;;;;;;494527;240;28731;-78
2023/07/05 05:57:34;;;;;;;6.87;4.63;;;15.10;99.90;;;;;;494540;240;28745;-79
2023/07/05 05:59:35;;;;;;;6.63;4.80;;;15.10;99.90;;;;;;494512;240;28707;-79
2023/07/05 06:01:36;;;;;;;5.23;4.47;;;14.90;99.90;;;;;;494530;240;28762;-79
2023/07/05 06:03:37;;;;;;;5.30;4.40;;;14.80;99.90;;;;;;494551;240;28709;-79
2023/07/05 06:05:39;;;;;;;6.20;4.93;;;15.00;99.90;;;;;;494532;240;28740;-79
2023/07/05 06:07:40;;;;;;;6.93;4.90;;;15.00;99.90;;;;;;494486;240;28756;-79
2023/07/05 06:09:41;;;;;;;8.80;5.00;;;15.00;99.90;;;;;;494560;240;28737;-79
2023/07/05 06:11:42;;;;;;;6.90;4.80;;;14.90;99.90;;;;;;494543;240;30058;-79
2023/07/05 06:13:44;;;;;;;6.20;5.33;;;14.80;99.90;;;;;;494563;240;29128;-79
2023/07/05 06:15:45;;;;;;;8.10;4.60;;;14.70;99.90;;;;;;494558;240;29188;-78
2023/07/05 06:17:46;;;;;;;8.67;5.10;;;14.60;99.90;;;;;;494510;240;28655;-79
2023/07/05 06:19:47;;;;;;;6.17;4.90;;;14.60;99.90;;;;;;494527;240;28789;-79
2023/07/05 06:21:49;;;;;;;6.93;4.87;;;14.70;99.90;;;;;;494527;240;28725;-79
2023/07/05 06:23:50;;;;;;;7.10;4.90;;;14.70;99.90;;;;;;494548;240;28699;-79
2023/07/05 06:25:51;;;;;;;6.20;4.90;;;14.70;99.90;;;;;;494548;240;28702;-79
2023/07/05 06:27:52;;;;;;;8.03;5.10;;;14.70;99.90;;;;;;494529;240;28693;-79
2023/07/05 06:29:54;;;;;;;6.33;5.23;;;14.70;99.90;;;;;;494483;240;28743;-79
2023/07/05 06:31:55;;;;;;;6.80;4.70;;;14.70;99.90;;;;;;494524;240;28665;-79
2023/07/05 06:33:56;;;;;;;7.47;5.67;;;14.80;99.90;;;;;;494543;240;28718;-79
2023/07/05 06:36:00;;;;;;;7.60;5.47;;;14.90;99.90;;;;;;494556;240;29175;-79
2023/07/05 06:37:59;;;;;;;6.53;4.90;;;14.80;99.90;;;;;;494355;240;29182;-79
2023/07/05 06:40:00;;;;;;;6.80;5.10;;;14.80;99.90;;;;;;494523;240;29261;-79
2023/07/05 06:42:01;;;;;;;7.13;5.30;;;14.80;99.90;;;;;;494504;240;29223;-79
2023/07/05 06:44:02;;;;;;;7.20;4.73;;;14.90;99.90;;;;;;494502;240;28660;-79
2023/07/05 06:46:04;;;;;;;9.50;5.13;;;14.80;99.90;;;;;;494530;240;28722;-79
2023/07/05 06:48:05;;;;;;;6.70;5.07;;;14.90;99.90;;;;;;494503;240;28656;-79
2023/07/05 06:50:06;;;;;;;8.57;5.37;;;14.80;99.90;;;;;;494481;240;28775;-79
2023/07/05 06:52:07;;;;;;;8.67;4.97;;;14.70;99.90;;;;;;494531;240;28655;-79
2023/07/05 06:54:09;;;;;;;6.07;4.97;;;14.50;99.90;;;;;;494513;240;28703;-79
2023/07/05 06:56:10;;;;;;;10.00;5.87;;;14.40;99.90;;;;;;494532;240;28769;-79
2023/07/05 06:58:11;;;;;;;7.90;5.80;;;14.40;99.90;;;;;;494538;240;28762;-79
2023/07/05 07:00:12;;;;;;;6.87;5.17;;;14.50;99.90;;;;;;494477;240;29262;-79
2023/07/05 07:02:14;;;;;;;6.37;4.50;;;14.30;99.90;;;;;;494497;240;29143;-79
2023/07/05 07:04:15;;;;;;;7.03;5.20;;;14.40;99.90;;;;;;494534;240;29138;-79
2023/07/05 07:06:16;;;;;;;8.83;5.80;;;14.40;99.90;;;;;;494541;240;28797;-79
2023/07/05 07:08:17;;;;;;;7.53;5.30;;;14.50;99.90;;;;;;494506;240;28686;-79
2023/07/05 07:10:19;;;;;;;8.73;5.27;;;14.50;99.90;;;;;;494528;240;28725;-79
2023/07/05 07:12:20;;;;;;;7.80;4.80;;;14.60;99.90;;;;;;494494;240;28680;-79
2023/07/05 07:14:21;;;;;;;6.73;5.60;;;14.70;99.90;;;;;;494504;240;28684;-79
2023/07/05 07:16:22;;;;;;;6.90;5.00;;;14.90;99.90;;;;;;494565;240;28777;-79
2023/07/05 07:18:24;;;;;;;6.90;4.97;;;15.00;99.90;;;;;;494540;240;28695;-79
2023/07/05 07:20:25;;;;;;;8.27;5.60;;;15.10;99.90;;;;;;494541;240;28809;-79
2023/07/05 07:22:26;;;;;;;7.67;5.17;;;15.00;99.90;;;;;;494531;240;28673;-79
2023/07/05 07:24:31;;;;;;;6.00;4.90;;;15.00;99.90;;;;;;494512;240;28694;-79
2023/07/05 07:26:29;;;;;;;10.00;5.53;;;15.00;99.90;;;;;;494214;240;28736;-79
2023/07/05 07:28:30;;;;;;;6.30;5.20;;;15.00;99.90;;;;;;494555;240;29220;-79
2023/07/05 07:30:31;;;;;;;7.10;5.20;;;14.60;99.90;;;;;;494548;240;29200;-79
2023/07/05 07:32:32;;;;;;;7.17;4.60;;;14.50;99.90;;;;;;494543;240;28737;-79
2023/07/05 07:34:34;;;;;;;5.00;4.50;;;14.60;99.90;;;;;;494535;240;28691;-79
2023/07/05 07:36:35;;;;;;;7.13;4.33;;;14.90;99.90;;;;;;494544;240;28804;-79
2023/07/05 07:38:36;;;;;;;6.27;3.97;;;15.20;99.90;;;;;;494527;240;28659;-78
2023/07/05 07:40:37;;;;;;;5.03;4.17;;;15.40;99.90;;;;;;494534;240;28809;-79
2023/07/05 07:42:39;;;;;;;6.30;4.30;;;15.10;99.90;;;;;;494532;240;28720;-80
2023/07/05 07:44:40;;;;;;;6.23;4.03;;;15.00;99.90;;;;;;494459;240;28702;-79
2023/07/05 07:46:41;;;;;;;8.70;4.27;;;15.00;99.90;;;;;;494555;240;28704;-78
2023/07/05 07:48:42;;;;;;;8.70;4.63;;;15.10;99.90;;;;;;494512;240;29104;-79
2023/07/05 07:50:44;;;;;;;5.37;4.10;;;15.30;99.90;;;;;;494442;240;29233;-79
2023/07/05 07:52:45;;;;;;;5.10;3.30;;;15.30;99.90;;;;;;494513;240;29131;-79
2023/07/05 07:54:46;;;;;;;5.43;3.70;;;15.40;99.90;;;;;;494511;240;28689;-79
2023/07/05 07:56:47;;;;;;;4.17;3.63;;;15.40;99.90;;;;;;494577;240;28829;-79
2023/07/05 07:58:49;;;;;;;5.37;4.10;;;15.40;99.90;;;;;;494551;240;28776;-79
2023/07/05 08:00:50;;;;;;;6.80;3.63;;;15.40;99.90;;;;;;494540;240;28725;-79
2023/07/05 08:02:51;;;;;;;5.60;4.07;;;15.60;99.90;;;;;;494519;240;28653;-79
2023/07/05 08:04:52;;;;;;;5.67;4.17;;;15.70;99.90;;;;;;494519;240;28718;-79
2023/07/05 08:06:54;;;;;;;5.73;3.37;;;15.50;99.90;;;;;;494551;240;28701;-79
2023/07/05 08:08:55;;;;;;;9.13;3.73;;;15.80;99.90;;;;;;494519;240;28734;-78
2023/07/05 08:10:56;;;;;;;6.23;4.33;;;15.90;99.90;;;;;;494542;240;28812;-79
2023/07/05 08:12:57;;;;;;;6.20;4.57;;;15.70;99.90;;;;;;494500;240;29131;-80
2023/07/05 08:14:59;;;;;;;4.93;3.67;;;15.70;99.90;;;;;;494519;240;29291;-79
2023/07/05 08:17:00;;;;;;;5.77;3.80;;;16.10;99.90;;;;;;494447;240;29895;-79
2023/07/05 08:19:01;;;;;;;4.30;3.10;;;16.20;99.90;;;;;;494543;240;29112;-79
2023/07/05 08:21:03;;;;;;;6.70;3.90;;;16.50;99.90;;;;;;494508;240;28786;-79
2023/07/05 08:23:05;;;;;;;8.93;4.47;;;16.50;99.90;;;;;;494445;240;28748;-79
2023/07/05 08:25:05;;;;;;;6.30;3.83;;;16.20;99.90;;;;;;494431;240;28729;-79
2023/07/05 08:27:06;;;;;;;4.10;3.40;;;16.10;99.90;;;;;;494457;240;28660;-79
2023/07/05 08:29:08;;;;;;;4.57;3.93;;;16.10;99.90;;;;;;494501;240;28732;-79
2023/07/05 08:31:09;;;;;;;5.57;3.40;;;15.90;99.90;;;;;;494509;240;28745;-79
2023/07/05 08:33:10;;;;;;;3.83;3.13;;;16.00;99.90;;;;;;494412;240;28752;-78
2023/07/05 08:35:11;;;;;;;3.93;3.03;;;16.00;99.90;;;;;;494527;240;28780;-80
2023/07/05 08:37:13;;;;;;;3.50;3.20;;;16.30;99.90;;;;;;494561;240;29049;-78
2023/07/05 08:39:14;;;;;;;5.93;3.23;;;16.20;99.90;;;;;;494576;240;28676;-78
2023/07/05 08:41:16;;;;;;;6.30;3.90;;;16.10;99.90;;;;;;494580;240;28712;-79
2023/07/05 08:43:16;;;;;;;10.07;4.40;;;16.00;99.90;;;;;;494524;240;28673;-79
2023/07/05 08:45:18;;;;;;;3.80;2.83;;;16.30;99.90;;;;;;494525;240;28698;-78
2023/07/05 08:47:19;;;;;;;4.83;3.10;;;16.30;99.90;;;;;;494582;240;29245;-78
2023/07/05 08:49:21;;;;;;;5.30;3.40;;;16.50;99.90;;;;;;494529;240;29191;-80
2023/07/05 08:51:21;;;;;;;4.20;3.30;;;16.60;99.90;;;;;;494564;240;29175;-79
2023/07/05 08:53:23;;;;;;;4.50;3.40;;;16.50;99.90;;;;;;494547;240;28763;-79
2023/07/05 08:55:24;;;;;;;4.03;2.90;;;16.40;99.90;;;;;;494543;240;28795;-79
2023/07/05 08:57:25;;;;;;;5.43;3.10;;;16.20;99.90;;;;;;494526;240;28696;-79
2023/07/05 08:59:26;;;;;;;3.97;2.80;;;16.60;99.90;;;;;;494562;240;28720;-79
2023/07/05 09:01:28;;;;;;;7.03;3.20;;;16.40;99.90;;;;;;494545;240;28726;-79
2023/07/05 09:03:29;;;;;;;7.80;3.07;;;16.00;99.90;;;;;;494526;240;28805;-79
2023/07/05 09:05:31;;;;;;;7.43;2.80;;;16.00;99.90;;;;;;494528;240;29277;-79
2023/07/05 09:07:31;;;;;;;5.90;2.80;;;15.90;99.90;;;;;;494478;240;29918;-79
2023/07/05 09:09:33;;;;;;;3.20;2.57;;;16.10;99.90;;;;;;494516;240;29135;-79
2023/07/05 09:11:34;;;;;;;6.23;3.30;;;16.50;99.90;;;;;;494519;238;29167;-79
2023/07/05 09:13:35;;;;;;;4.70;2.60;;;16.50;99.90;;;;;;494514;240;28649;-79
2023/07/05 09:15:37;;;;;;;3.60;2.87;;;16.40;99.90;;;;;;494535;240;28685;-80
2023/07/05 09:17:38;;;;;;;4.30;2.77;;;16.50;99.90;;;;;;494488;240;28725;-80
2023/07/05 09:19:39;;;;;;;3.77;2.50;;;16.50;99.90;;;;;;494546;240;28697;-79
2023/07/05 09:21:40;;;;;;;4.80;2.77;;;16.60;99.90;;;;;;494558;240;28689;-79
2023/07/05 09:23:42;;;;;;;6.03;3.00;;;16.30;99.90;;;;;;494537;240;28672;-79
2023/07/05 09:25:43;;;;;;;5.03;3.13;;;16.20;99.90;;;;;;494534;240;28700;-79
2023/07/05 09:27:46;;;;;;;3.17;2.50;;;16.20;99.90;;;;;;494558;240;28744;-78
2023/07/05 09:29:46;;;;;;;3.43;2.70;;;16.40;99.90;;;;;;494448;240;29229;-79
2023/07/05 09:31:47;;;;;;;4.30;2.83;;;16.60;99.90;;;;;;494530;240;29266;-78
2023/07/05 09:33:48;;;;;;;2.80;2.47;;;16.90;99.90;;;;;;494416;240;29132;-79
2023/07/05 09:35:49;;;;;;;6.70;2.80;;;16.80;99.90;;;;;;494552;240;29221;-79
2023/07/05 09:37:50;;;;;;;4.13;2.50;;;16.90;99.90;;;;;;494501;240;28667;-78
2023/07/05 09:39:52;;;;;;;3.73;2.53;;;17.10;99.90;;;;;;494526;240;28774;-79
2023/07/05 09:41:53;;;;;;;4.70;2.80;;;17.30;99.90;;;;;;494514;240;28692;-79
2023/07/05 09:43:54;;;;;;;6.97;2.80;;;17.10;99.90;;;;;;494524;240;28650;-79
2023/07/05 09:45:55;;;;;;;5.80;2.90;;;17.00;99.90;;;;;;494513;240;28696;-80
2023/07/05 09:47:57;;;;;;;3.83;2.40;;;16.70;99.90;;;;;;494482;240;28744;-79
2023/07/05 09:49:58;;;;;;;9.53;2.53;;;16.70;99.90;;;;;;494403;240;28695;-79
2023/07/05 09:51:59;;;;;;;3.20;2.40;;;16.60;99.90;;;;;;494547;240;28723;-79
2023/07/05 09:54:00;;;;;;;4.20;2.63;;;16.50;99.90;;;;;;494552;240;28728;-81
2023/07/05 09:56:03;;;;;;;3.50;2.50;;;16.20;99.90;;;;;;494517;240;29200;-79
2023/07/05 09:58:04;;;;;;;5.37;2.30;;;16.00;99.90;;;;;;494531;240;29867;-79
2023/07/05 10:00:05;;;;;;;5.70;2.60;;;16.00;99.90;;;;;;494586;240;29131;-78
2023/07/05 10:02:08;;;;;;;6.10;2.80;;;15.90;99.90;;;;;;494647;240;28704;-79
2023/07/05 10:04:07;;;;;;;2.60;2.40;;;15.90;99.90;;;;;;494429;240;28668;-80
2023/07/05 10:06:08;;;;;;;6.50;2.63;;;16.10;99.90;;;;;;494538;240;28794;-79
2023/07/05 10:08:09;;;;;;;3.77;2.10;;;16.20;99.90;;;;;;494572;240;28755;-80
2023/07/05 10:10:10;;;;;;;4.80;2.50;;;16.30;99.90;;;;;;494530;240;28745;-79
2023/07/05 10:12:12;;;;;;;5.97;2.60;;;16.40;99.90;;;;;;494435;240;28771;-79
2023/07/05 10:14:13;;;;;;;3.43;2.83;;;16.60;99.90;;;;;;494509;240;28730;-79
2023/07/05 10:16:14;;;;;;;3.90;2.20;;;16.60;99.90;;;;;;494535;240;28789;-79
2023/07/05 10:18:15;;;;;;;3.90;2.30;;;16.70;99.90;;;;;;494523;240;28656;-79
2023/07/05 10:20:17;;;;;;;2.77;2.50;;;16.90;99.90;;;;;;494557;240;29162;-79
2023/07/05 10:22:18;;;;;;;4.63;2.57;;;17.20;99.90;;;;;;494569;240;29271;-79
2023/07/05 10:24:19;;;;;;;4.00;2.53;;;17.50;99.90;;;;;;494530;240;29198;-79
2023/07/05 10:26:21;;;;;;;2.90;2.17;;;17.80;99.90;;;;;;494526;240;28867;-79
2023/07/05 10:28:25;;;;;;;4.50;2.90;;;18.00;99.90;;;;;;494513;240;28657;-79
2023/07/05 10:30:23;;;;;;;2.43;2.23;;;17.80;99.90;;;;;;494263;240;28776;-79